Time;durP1;ratioP1;P1;durP2;ratioP2;P2;SDS_P1;SDS_P2;PMS_P1;PMS_P2;Temp;Humidity;BMP_temperature;BMP_pressure;BME280_temperature;BME280_humidity;BME280_pressure;Samples;Min_cycle;Max_cycle;Signal;HPM_P1;HPM_P2
2023/08/19 00:01:05;;;;;;;13.60;11.50;;;;;;;18.58;100.00;99250.59;274086;1271;22183;-85
2023/08/19 00:07:08;;;;;;;16.80;11.40;;;;;;;18.60;100.00;99248.84;273761;1267;22528;-86
2023/08/19 00:13:10;;;;;;;14.70;11.60;;;;;;;18.58;100.00;99250.62;273647;1267;22231;-85
2023/08/19 00:19:11;;;;;;;21.40;12.40;;;;;;;18.55;100.00;99245.81;273588;1267;23171;-86
2023/08/19 00:25:34;;;;;;;21.30;12.70;;;;;;;18.55;100.00;99240.67;273683;1267;22436;-86
2023/08/19 00:31:39;;;;;;;13.70;11.10;;;;;;;18.57;100.00;99236.28;271450;1267;22309;-85
2023/08/19 00:37:41;;;;;;;13.70;12.20;;;;;;;18.52;100.00;99235.27;270361;1267;22571;-87
2023/08/19 00:43:43;;;;;;;15.70;12.70;;;;;;;18.50;100.00;99221.91;271063;1264;23353;-84
2023/08/19 00:49:44;;;;;;;18.20;12.70;;;;;;;18.49;100.00;99214.96;270053;1267;22602;-86
2023/08/19 00:55:47;;;;;;;14.00;12.40;;;;;;;18.49;100.00;99214.89;270895;1267;22556;-86
2023/08/19 01:01:49;;;;;;;16.20;12.80;;;;;;;18.49;100.00;99209.96;271306;1267;22543;-87
2023/08/19 01:07:53;;;;;;;17.80;12.80;;;;;;;18.51;100.00;99206.30;270853;1267;23287;-87
2023/08/19 01:14:09;;;;;;;18.30;12.40;;;;;;;18.50;100.00;99203.94;272121;1266;22454;-84
2023/08/19 01:20:11;;;;;;;19.30;12.00;;;;;;;18.47;100.00;99210.02;271721;1267;22401;-85
2023/08/19 01:26:13;;;;;;;17.70;12.10;;;;;;;18.50;100.00;99213.45;273731;1267;22282;-85
2023/08/19 01:32:15;;;;;;;17.90;12.60;;;;;;;18.52;100.00;99206.60;273485;1267;22154;-85
2023/08/19 01:38:44;;;;;;;13.80;11.80;;;;;;;18.56;100.00;99207.71;273646;1267;22380;-85
2023/08/19 01:44:46;;;;;;;15.70;13.10;;;;;;;18.59;100.00;99209.48;273704;1267;22202;-85
2023/08/19 01:50:48;;;;;;;14.30;12.70;;;;;;;18.61;100.00;99216.17;272670;1267;22516;-85
2023/08/19 01:56:51;;;;;;;17.00;13.00;;;;;;;18.60;100.00;99215.06;270647;1267;22567;-85
2023/08/19 02:02:53;;;;;;;14.80;12.50;;;;;;;18.58;100.00;99213.62;271736;1267;22168;-85
2023/08/19 02:09:36;;;;;;;16.40;10.90;;;;;;;18.58;100.00;99215.67;273649;1267;22170;-86
2023/08/19 02:15:53;;;;;;;17.20;13.10;;;;;;;18.61;100.00;99216.42;273723;1267;22194;-85
2023/08/19 02:21:55;;;;;;;14.10;12.50;;;;;;;18.60;100.00;99217.15;273804;1267;22377;-86
2023/08/19 02:27:57;;;;;;;16.20;12.40;;;;;;;18.58;100.00;99221.14;273940;1269;22203;-86
2023/08/19 02:34:02;;;;;;;18.90;13.50;;;;;;;18.54;100.00;99223.90;273585;1266;24682;-85
2023/08/19 02:40:07;;;;;;;14.50;11.20;;;;;;;18.54;100.00;99222.88;269724;1267;4279504;-86
2023/08/19 02:46:09;;;;;;;12.60;11.10;;;;;;;18.53;100.00;99219.64;273662;1267;22186;-85
2023/08/19 02:52:11;;;;;;;18.20;11.90;;;;;;;18.54;100.00;99223.02;273606;1267;22180;-85
2023/08/19 02:58:13;;;;;;;15.50;12.70;;;;;;;18.55;100.00;99231.66;273668;1267;22964;-86
2023/08/19 03:04:15;;;;;;;13.50;11.50;;;;;;;18.54;100.00;99238.31;273504;1260;22411;-86
2023/08/19 03:10:17;;;;;;;13.60;12.20;;;;;;;18.56;100.00;99241.94;270757;1267;22515;-86
2023/08/19 03:16:19;;;;;;;14.60;11.60;;;;;;;18.58;100.00;99242.52;270200;1264;23571;-85
2023/08/19 03:22:23;;;;;;;14.90;12.40;;;;;;;18.58;100.00;99247.75;270895;1267;22603;-86
2023/08/19 03:28:24;;;;;;;20.60;11.90;;;;;;;18.56;100.00;99247.94;270450;1267;24997;-85
2023/08/19 03:34:27;;;;;;;14.20;11.00;;;;;;;18.49;100.00;99252.73;270174;1267;23607;-85
2023/08/19 03:40:29;;;;;;;16.60;11.90;;;;;;;18.44;100.00;99253.77;273424;1267;22334;-86
2023/08/19 03:46:56;;;;;;;13.90;11.60;;;;;;;18.45;100.00;99255.02;273738;1267;22157;-86
2023/08/19 03:53:33;;;;;;;14.30;11.70;;;;;;;18.45;100.00;99262.38;273812;1268;22193;-86
2023/08/19 03:59:55;;;;;;;12.90;10.90;;;;;;;18.45;100.00;99270.13;273833;1269;22125;-86
2023/08/19 04:05:57;;;;;;;14.00;11.30;;;;;;;18.41;100.00;99274.16;273559;1267;22385;-86
2023/08/19 04:12:19;;;;;;;15.10;11.10;;;;;;;18.36;100.00;99273.59;273652;1267;22195;-86
2023/08/19 04:18:21;;;;;;;13.60;10.90;;;;;;;18.37;100.00;99266.15;274000;1269;22561;-86
2023/08/19 04:24:23;;;;;;;13.00;10.00;;;;;;;18.39;100.00;99270.62;273406;1267;23031;-86
2023/08/19 04:30:25;;;;;;;17.20;11.50;;;;;;;18.43;100.00;99269.93;273546;1267;22331;-86
2023/08/19 04:36:27;;;;;;;14.70;11.20;;;;;;;18.43;100.00;99275.56;273662;1266;24312;-86
2023/08/19 04:42:28;;;;;;;15.20;11.80;;;;;;;18.44;100.00;99275.88;273725;1267;22364;-86
2023/08/19 04:48:30;;;;;;;15.00;10.50;;;;;;;18.43;100.00;99280.00;273651;1267;22222;-86
2023/08/19 04:54:32;;;;;;;13.90;11.20;;;;;;;18.44;100.00;99276.18;273630;1267;22224;-86
2023/08/19 05:00:35;;;;;;;12.80;11.40;;;;;;;18.46;100.00;99269.64;273613;1264;22287;-86
2023/08/19 05:06:37;;;;;;;13.40;11.10;;;;;;;18.44;100.00;99275.55;273589;1267;22445;-86
2023/08/19 05:12:39;;;;;;;16.00;11.30;;;;;;;18.41;100.00;99276.87;273518;1267;22216;-85
2023/08/19 05:18:41;;;;;;;14.00;10.70;;;;;;;18.50;100.00;99284.02;273512;1267;22290;-85
2023/08/19 05:24:43;;;;;;;13.70;11.10;;;;;;;18.66;100.00;99280.80;273518;1266;22387;-85
2023/08/19 05:30:45;;;;;;;13.80;11.00;;;;;;;18.88;100.00;99283.67;273603;1255;22176;-85
2023/08/19 05:36:47;;;;;;;11.90;10.40;;;;;;;19.06;100.00;99281.27;273614;1267;22398;-85
2023/08/19 05:42:49;;;;;;;16.30;10.30;;;;;;;19.25;100.00;99278.02;273477;1267;22399;-85
2023/08/19 05:48:52;;;;;;;11.60;10.40;;;;;;;19.41;100.00;99288.02;273576;1267;22451;-85
2023/08/19 05:54:53;;;;;;;15.10;10.30;;;;;;;19.62;100.00;99289.42;272248;1267;22537;-86
2023/08/19 06:00:59;;;;;;;21.10;10.90;;;;;;;19.88;100.00;99292.13;272332;1267;22183;-86
2023/08/19 06:07:02;;;;;;;10.10;9.00;;;;;;;20.08;100.00;99298.50;271080;1267;23912;-86
2023/08/19 06:13:04;;;;;;;10.70;9.50;;;;;;;20.35;100.00;99295.84;272123;1267;22519;-86
2023/08/19 06:19:06;;;;;;;10.20;8.80;;;;;;;20.64;100.00;99296.35;272560;1267;24213;-86
2023/08/19 06:25:08;;;;;;;10.20;9.20;;;;;;;20.92;100.00;99298.98;273447;1267;22990;-86
2023/08/19 06:31:10;;;;;;;10.00;8.40;;;;;;;21.17;100.00;99303.11;273478;1267;22307;-86
2023/08/19 06:37:19;;;;;;;9.20;8.30;;;;;;;21.35;100.00;99297.67;273578;1260;22334;-86
2023/08/19 06:43:22;;;;;;;12.70;8.30;;;;;;;21.53;100.00;99298.92;273587;1267;22357;-87
2023/08/19 06:49:24;;;;;;;9.00;8.10;;;;;;;21.77;100.00;99302.64;273661;1267;22338;-86
2023/08/19 06:55:26;;;;;;;12.90;8.70;;;;;;;22.07;100.00;99305.31;273668;1255;23080;-86
2023/08/19 07:01:30;;;;;;;11.50;7.90;;;;;;;22.36;100.00;99305.44;273640;1267;22224;-86
2023/08/19 07:07:33;;;;;;;9.30;8.30;;;;;;;22.54;100.00;99307.85;273708;1267;22442;-87
2023/08/19 07:13:36;;;;;;;10.80;8.50;;;;;;;22.64;100.00;99318.11;273141;1267;22558;-86
2023/08/19 07:19:39;;;;;;;12.50;8.80;;;;;;;22.77;100.00;99323.59;270639;1267;22564;-87
2023/08/19 07:25:42;;;;;;;10.80;8.70;;;;;;;22.94;100.00;99322.30;273616;1267;23613;-88
2023/08/19 07:31:47;;;;;;;11.30;9.40;;;;;;;23.19;100.00;99322.59;270570;1267;22524;-87
2023/08/19 07:37:51;;;;;;;15.60;9.00;;;;;;;23.45;100.00;99323.67;273380;1267;22196;-88
2023/08/19 07:43:52;;;;;;;9.80;7.90;;;;;;;23.72;100.00;99327.55;273593;1267;22252;-88
2023/08/19 07:49:54;;;;;;;12.80;8.70;;;;;;;24.00;100.00;99331.14;273577;1263;22204;-88
2023/08/19 07:55:56;;;;;;;9.30;8.30;;;;;;;24.37;100.00;99333.65;273561;1267;22211;-87
2023/08/19 08:01:58;;;;;;;9.20;7.60;;;;;;;24.78;100.00;99331.61;273842;1266;23339;-88
2023/08/19 08:08:00;;;;;;;8.00;7.00;;;;;;;25.24;100.00;99333.94;270862;1267;23897;-88
2023/08/19 08:14:01;;;;;;;6.80;6.20;;;;;;;25.56;100.00;99336.92;270988;1267;22541;-88
2023/08/19 08:20:04;;;;;;;9.10;6.10;;;;;;;25.70;100.00;99346.33;270918;1267;23633;-88
2023/08/19 08:26:06;;;;;;;8.00;6.00;;;;;;;25.79;100.00;99347.75;273469;1264;22193;-90
2023/08/19 08:32:09;;;;;;;7.70;6.90;;;;;;;26.02;100.00;99353.23;273255;1267;22298;-89
2023/08/19 08:38:11;;;;;;;9.40;6.40;;;;;;;26.24;100.00;99348.66;273357;1267;22631;-89
2023/08/19 08:44:13;;;;;;;9.60;6.10;;;;;;;26.43;100.00;99346.83;273710;1267;22324;-90
2023/08/19 08:50:15;;;;;;;7.90;6.90;;;;;;;26.64;100.00;99349.05;273561;1267;22642;-89
2023/08/19 08:56:17;;;;;;;7.90;7.10;;;;;;;26.78;99.96;99349.86;273543;1267;22578;-87
2023/08/19 09:02:19;;;;;;;8.50;7.10;;;;;;;26.95;98.88;99350.80;273461;1267;22348;-87
2023/08/19 09:08:25;;;;;;;7.60;6.00;;;;;;;27.12;97.52;99345.41;273449;1267;22463;-87
2023/08/19 09:14:36;;;;;;;7.80;5.70;;;;;;;27.35;95.74;99340.34;273671;1267;22561;-88
2023/08/19 09:20:40;;;;;;;8.10;5.90;;;;;;;27.79;94.27;99344.83;273409;1267;22455;-87
2023/08/19 09:26:42;;;;;;;8.00;5.60;;;;;;;28.31;92.96;99343.79;273759;1269;22214;-87
2023/08/19 09:32:45;;;;;;;7.00;6.30;;;;;;;28.82;89.63;99343.30;272312;1267;22543;-89
2023/08/19 09:38:54;;;;;;;8.30;6.90;;;;;;;29.52;87.49;99345.23;273309;1267;22222;-89
2023/08/19 09:44:56;;;;;;;6.10;5.50;;;;;;;30.21;85.29;99345.59;273616;1267;22420;-90
2023/08/19 09:50:58;;;;;;;5.30;4.80;;;;;;;30.88;83.97;99348.30;273581;1267;22353;-90
2023/08/19 09:56:59;;;;;;;6.70;5.50;;;;;;;31.65;82.35;99350.66;273593;1267;22340;-91
2023/08/19 10:03:02;;;;;;;6.00;5.20;;;;;;;32.16;77.68;99342.83;273603;1267;22396;-90
2023/08/19 10:09:07;;;;;;;7.10;5.50;;;;;;;32.55;75.24;99338.70;273469;1267;22508;-91
2023/08/19 10:15:12;;;;;;;5.70;5.00;;;;;;;32.98;72.90;99336.75;273455;1267;23577;-89
2023/08/19 10:21:15;;;;;;;8.20;5.40;;;;;;;33.08;69.94;99333.84;272860;1267;22304;-91
2023/08/19 10:27:19;;;;;;;5.90;5.30;;;;;;;33.12;68.57;99328.52;272833;1267;22418;-91
2023/08/19 10:34:28;;;;;;;5.40;4.90;;;;;;;33.26;67.61;99325.06;273150;1267;23136;-90
2023/08/19 10:41:40;;;;;;;5.90;5.00;;;;;;;33.37;65.51;99324.67;272459;1267;22058;-91
2023/08/19 10:48:02;;;;;;;8.50;4.10;;;;;;;33.61;64.10;99319.83;274014;1269;22195;-91
2023/08/19 10:54:29;;;;;;;4.40;3.90;;;;;;;33.59;61.85;99318.13;274010;1272;22207;-91
2023/08/19 11:00:41;;;;;;;5.70;4.30;;;;;;;33.35;60.63;99310.95;274088;1269;22257;-91
2023/08/19 11:07:26;;;;;;;4.40;4.00;;;;;;;33.42;59.76;99310.32;274095;1269;22256;-91
2023/08/19 11:13:49;;;;;;;4.10;3.70;;;;;;;33.58;58.50;99307.58;273938;1268;23328;-92
2023/08/19 11:19:53;;;;;;;3.90;3.50;;;;;;;33.71;57.16;99302.23;273545;1267;22395;-91
2023/08/19 11:26:16;;;;;;;7.30;4.10;;;;;;;33.88;57.18;99294.74;270412;1267;25359;-91
2023/08/19 11:32:42;;;;;;;5.00;3.70;;;;;;;33.93;56.31;99296.95;269987;1267;22772;-92
2023/08/19 11:39:08;;;;;;;7.30;4.00;;;;;;;33.98;55.75;99297.13;269926;1260;22570;-91
2023/08/19 11:45:12;;;;;;;4.10;3.30;;;;;;;33.70;55.00;99298.16;269762;1267;22535;-90
2023/08/19 11:51:20;;;;;;;4.20;3.70;;;;;;;33.19;54.68;99297.70;269623;1267;23189;-91
2023/08/19 11:57:23;;;;;;;4.80;4.20;;;;;;;32.84;54.59;99284.77;273036;1266;22327;-90
2023/08/19 12:03:54;;;;;;;6.30;4.40;;;;;;;32.30;54.63;99283.26;269741;1267;22750;-91
2023/08/19 12:10:05;;;;;;;5.70;4.50;;;;;;;31.64;55.03;99281.61;270356;1267;22975;-91
2023/08/19 12:16:29;;;;;;;4.90;4.30;;;;;;;31.34;54.89;99285.75;273038;1269;23560;-89
2023/08/19 12:22:37;;;;;;;4.80;4.40;;;;;;;31.37;55.91;99288.23;273677;1261;22331;-92
2023/08/19 12:28:43;;;;;;;5.10;4.40;;;;;;;31.17;57.33;99288.76;273979;1275;22157;-91
2023/08/19 12:35:05;;;;;;;8.80;4.80;;;;;;;31.05;57.77;99289.36;273975;1268;22287;-91
2023/08/19 12:41:30;;;;;;;6.60;4.90;;;;;;;30.73;58.35;99288.34;273805;1269;22164;-90
2023/08/19 12:47:33;;;;;;;6.20;4.70;;;;;;;30.33;58.09;99287.38;273686;1266;22317;-91
2023/08/19 12:53:35;;;;;;;6.00;5.00;;;;;;;29.96;58.78;99287.26;273831;1269;22268;-91
2023/08/19 12:59:37;;;;;;;6.40;5.20;;;;;;;29.76;59.43;99290.39;272733;1269;22222;-90
2023/08/19 13:05:39;;;;;;;6.70;4.90;;;;;;;29.63;60.62;99295.06;273656;1267;22400;-90
2023/08/19 13:11:50;;;;;;;5.70;5.00;;;;;;;29.43;61.64;99294.30;273701;1269;22185;-92
2023/08/19 13:17:52;;;;;;;5.80;5.30;;;;;;;29.26;62.96;99294.12;273672;1272;22223;-91
2023/08/19 13:23:59;;;;;;;8.50;6.30;;;;;;;29.21;63.91;99295.53;271655;1269;22419;-92
2023/08/19 13:30:01;;;;;;;7.70;6.20;;;;;;;29.22;64.92;99307.18;271259;1269;23700;-91
2023/08/19 13:36:10;;;;;;;8.80;6.60;;;;;;;29.18;66.35;99321.98;270930;1267;22697;-90
2023/08/19 13:42:14;;;;;;;7.10;6.20;;;;;;;29.03;67.34;99324.94;272337;1267;22307;-90
2023/08/19 13:48:21;;;;;;;6.50;5.80;;;;;;;28.93;69.03;99323.02;271962;1257;23495;-91
2023/08/19 13:54:24;;;;;;;6.30;5.50;;;;;;;28.84;68.45;99323.08;272887;1267;22608;-90
2023/08/19 14:00:32;;;;;;;9.00;6.10;;;;;;;28.75;68.49;99315.38;270692;1269;22308;-91
2023/08/19 14:06:36;;;;;;;8.40;5.80;;;;;;;28.69;68.47;99311.71;270420;1269;22566;-91
2023/08/19 14:12:44;;;;;;;7.80;6.00;;;;;;;28.47;68.44;99311.09;272495;1267;25354;-91
2023/08/19 14:18:49;;;;;;;6.50;5.90;;;;;;;28.30;68.47;99316.44;271857;1267;22545;-91
2023/08/19 14:24:52;;;;;;;6.40;5.40;;;;;;;28.08;68.26;99311.96;270252;1269;22556;-90
2023/08/19 14:30:57;;;;;;;7.50;5.30;;;;;;;27.84;68.46;99315.15;270416;1267;22544;-89
2023/08/19 14:37:27;;;;;;;6.30;5.70;;;;;;;27.53;69.18;99327.17;270422;1269;156663;-88
2023/08/19 14:43:29;;;;;;;6.70;6.10;;;;;;;27.25;70.58;99322.82;270635;1269;22610;-91
2023/08/19 14:49:35;;;;;;;6.80;6.10;;;;;;;27.07;71.39;99313.48;270826;1269;23774;-90
2023/08/19 14:55:38;;;;;;;6.40;5.70;;;;;;;26.98;72.00;99320.21;271900;1269;22559;-93
2023/08/19 15:02:03;;;;;;;9.10;6.50;;;;;;;27.00;72.95;99313.63;272446;1269;22315;-90
2023/08/19 15:08:07;;;;;;;6.20;5.40;;;;;;;26.99;73.96;99309.73;271432;1269;22351;-90
2023/08/19 15:14:10;;;;;;;7.60;5.80;;;;;;;27.05;74.61;99303.63;271260;1269;23394;-90
2023/08/19 15:20:14;;;;;;;7.30;6.00;;;;;;;27.13;74.94;99304.92;272701;1269;22554;-92
2023/08/19 15:26:20;;;;;;;6.90;6.10;;;;;;;27.25;74.90;99306.56;271596;1267;23474;-92
2023/08/19 15:32:47;;;;;;;;;;;;;;;27.34;75.27;99309.69;272758;1267;22534;-92
2023/08/19 15:38:53;;;;;;;6.40;5.60;;;;;;;27.37;75.28;99306.52;271768;1267;22565;-91
2023/08/19 15:45:01;;;;;;;7.30;6.60;;;;;;;27.34;75.00;99308.10;271343;1267;22483;-90
2023/08/19 15:51:15;;;;;;;6.30;5.80;;;;;;;27.28;74.61;99308.98;272702;1267;22023;-91
2023/08/19 16:10:45;;;;;;;6.90;6.20;;;;;;;27.41;74.43;99313.75;266914;1295;549428;-84
2023/08/19 16:16:48;;;;;;;7.20;6.50;;;;;;;27.25;74.97;99313.61;271158;1280;22188;-84
2023/08/19 16:22:49;;;;;;;8.50;6.60;;;;;;;27.03;75.57;99309.61;270211;1280;23378;-85
2023/08/19 16:28:51;;;;;;;7.60;6.80;;;;;;;26.91;76.06;99303.48;267838;1280;23202;-85
2023/08/19 16:34:53;;;;;;;7.50;6.80;;;;;;;26.80;76.69;99303.39;268475;1280;22548;-84
2023/08/19 16:40:55;;;;;;;8.30;6.30;;;;;;;26.68;77.46;99300.55;267990;1280;22551;-84
2023/08/19 16:46:56;;;;;;;7.50;6.70;;;;;;;26.52;77.79;99299.45;269479;1280;23648;-85
2023/08/19 16:52:58;;;;;;;8.60;7.00;;;;;;;26.37;78.15;99305.48;267699;1264;22558;-86
2023/08/19 16:59:00;;;;;;;8.20;7.40;;;;;;;26.25;78.71;99320.17;267815;1276;23151;-85
2023/08/19 17:05:05;;;;;;;8.90;7.70;;;;;;;26.12;78.83;99338.98;269292;1280;22559;-83
2023/08/19 17:11:07;;;;;;;8.10;7.30;;;;;;;25.94;79.85;99337.37;268166;1280;23236;-86
2023/08/19 17:17:09;;;;;;;8.60;7.70;;;;;;;25.72;80.82;99332.59;267915;1270;22637;-86
2023/08/19 17:23:11;;;;;;;8.50;7.30;;;;;;;25.52;81.83;99335.37;270419;1280;22463;-84
2023/08/19 17:29:13;;;;;;;9.50;7.90;;;;;;;25.31;83.05;99340.83;268034;1280;23185;-85
2023/08/19 17:35:15;;;;;;;8.20;7.30;;;;;;;25.11;84.10;99345.60;261182;1280;10001465;-84
2023/08/19 17:41:17;;;;;;;9.10;7.70;;;;;;;24.92;84.64;99343.27;269126;1280;23825;-85
2023/08/19 17:47:19;;;;;;;10.60;7.80;;;;;;;24.80;84.90;99346.09;269566;1280;23184;-84
2023/08/19 17:53:21;;;;;;;10.80;7.80;;;;;;;24.67;85.66;99344.70;271361;1280;22209;-85
2023/08/19 17:59:23;;;;;;;10.20;8.00;;;;;;;24.46;86.05;99347.65;271709;1276;22395;-85
2023/08/19 18:05:26;;;;;;;59.80;36.00;;;;;;;24.29;87.05;99357.27;271829;1277;22193;-84
2023/08/19 18:11:28;;;;;;;15.00;9.60;;;;;;;24.02;87.33;99371.82;271731;1276;22356;-84
2023/08/19 18:17:30;;;;;;;9.70;7.90;;;;;;;23.79;88.59;99374.48;271699;1276;22239;-84
2023/08/19 18:23:31;;;;;;;9.60;7.60;;;;;;;23.71;89.07;99364.49;271734;1276;23505;-84
2023/08/19 18:29:33;;;;;;;13.10;9.90;;;;;;;23.62;89.11;99363.56;271751;1276;22404;-85
2023/08/19 18:35:35;;;;;;;11.80;10.00;;;;;;;23.48;89.14;99370.99;270458;1276;22474;-86
2023/08/19 18:41:37;;;;;;;14.60;9.40;;;;;;;23.30;89.98;99374.81;271311;1276;22565;-86
2023/08/19 18:48:00;;;;;;;14.00;10.30;;;;;;;23.19;91.60;99374.59;269660;1272;22572;-87
2023/08/19 18:54:03;;;;;;;13.30;9.10;;;;;;;23.10;91.91;99369.54;269580;1272;22529;-87
2023/08/19 19:00:08;;;;;;;11.10;9.00;;;;;;;22.91;92.36;99367.38;270621;1272;23466;-87
2023/08/19 19:06:10;;;;;;;13.80;9.90;;;;;;;22.75;92.97;99366.80;270880;1258;22189;-86
2023/08/19 19:12:12;;;;;;;16.70;12.70;;;;;;;22.68;93.92;99366.08;272271;1272;22298;-87
2023/08/19 19:18:14;;;;;;;15.10;11.90;;;;;;;22.61;94.41;99381.28;272295;1272;22188;-87
2023/08/19 19:24:16;;;;;;;15.70;12.60;;;;;;;22.47;94.98;99389.27;272272;1272;23840;-85
2023/08/19 19:30:19;;;;;;;35.00;25.80;;;;;;;22.27;94.96;99385.48;272389;1272;23574;-85
2023/08/19 19:36:21;;;;;;;15.80;13.70;;;;;;;22.13;95.32;99383.42;272345;1272;22384;-85
2023/08/19 19:42:22;;;;;;;13.40;11.30;;;;;;;21.92;95.44;99389.79;271804;1272;22387;-86
2023/08/19 19:48:24;;;;;;;13.50;11.40;;;;;;;21.70;96.71;99391.73;269943;1272;23780;-87
2023/08/19 19:54:26;;;;;;;14.30;10.50;;;;;;;21.58;97.86;99389.28;270505;1272;23126;-86
2023/08/19 20:00:28;;;;;;;15.60;12.60;;;;;;;21.55;98.22;99388.48;269598;1272;23269;-85
2023/08/19 20:06:29;;;;;;;13.50;11.50;;;;;;;21.50;98.86;99392.34;269954;1272;22289;-85
2023/08/19 20:12:31;;;;;;;12.40;10.70;;;;;;;21.39;99.09;99391.21;271397;1273;22722;-86
2023/08/19 20:18:33;;;;;;;15.40;10.40;;;;;;;21.30;99.84;99394.06;269408;1272;24255;-85
2023/08/19 20:24:35;;;;;;;16.00;11.10;;;;;;;21.32;100.00;99396.90;269374;1272;23274;-84
2023/08/19 20:30:37;;;;;;;11.50;10.30;;;;;;;21.28;100.00;99402.08;269098;1272;22552;-85
2023/08/19 20:36:40;;;;;;;13.80;10.30;;;;;;;21.18;100.00;99401.63;269140;1272;22207;-85
2023/08/19 20:42:41;;;;;;;11.60;9.50;;;;;;;21.01;100.00;99403.79;269565;1272;22928;-86
2023/08/19 20:48:43;;;;;;;13.40;11.30;;;;;;;20.94;100.00;99403.96;269466;1272;26089;-86
2023/08/19 20:54:45;;;;;;;15.30;11.50;;;;;;;20.93;100.00;99404.44;269652;1272;22513;-85
2023/08/19 21:00:46;;;;;;;11.80;10.50;;;;;;;20.90;100.00;99400.86;269807;1272;25386;-86
2023/08/19 21:06:48;;;;;;;15.10;11.10;;;;;;;20.83;100.00;99402.38;271209;1272;23244;-85
2023/08/19 21:12:50;;;;;;;13.60;10.60;;;;;;;20.71;100.00;99407.27;272129;1272;22382;-85
2023/08/19 21:18:52;;;;;;;13.60;10.60;;;;;;;20.60;100.00;99406.89;272473;1272;23749;-85
2023/08/19 21:24:53;;;;;;;14.70;10.50;;;;;;;20.52;100.00;99413.98;272299;1272;22371;-85
2023/08/19 21:30:55;;;;;;;15.70;13.10;;;;;;;20.45;100.00;99414.78;271474;1272;23174;-88
2023/08/19 21:36:57;;;;;;;14.50;12.20;;;;;;;20.36;100.00;99416.32;269834;1272;22507;-85
2023/08/19 21:42:59;;;;;;;16.30;13.20;;;;;;;20.36;100.00;99423.95;269488;1272;25408;-85
2023/08/19 21:49:00;;;;;;;18.70;11.30;;;;;;;20.34;100.00;99417.71;269230;1272;22542;-85
2023/08/19 21:55:04;;;;;;;14.10;10.80;;;;;;;20.32;100.00;99414.38;269009;1272;22616;-88
2023/08/19 22:01:06;;;;;;;13.80;10.70;;;;;;;20.28;100.00;99414.92;268473;1272;23356;-85
2023/08/19 22:07:10;;;;;;;16.00;12.10;;;;;;;20.11;100.00;99419.86;268169;1272;25422;-89
2023/08/19 22:13:12;;;;;;;12.70;11.40;;;;;;;20.07;100.00;99414.94;268415;1272;22548;-86
2023/08/19 22:19:14;;;;;;;16.20;10.10;;;;;;;20.01;100.00;99412.98;269953;1269;22544;-87
2023/08/19 22:25:16;;;;;;;12.10;10.70;;;;;;;20.00;100.00;99410.45;269532;1266;23332;-85
2023/08/19 22:31:18;;;;;;;12.00;10.00;;;;;;;20.02;100.00;99412.02;269654;1269;22527;-86
2023/08/19 22:37:20;;;;;;;15.30;10.20;;;;;;;19.94;100.00;99411.91;269126;1270;22544;-85
2023/08/19 22:43:21;;;;;;;14.00;10.50;;;;;;;19.87;100.00;99418.52;269150;1269;25123;-85
2023/08/19 22:49:23;;;;;;;13.10;11.40;;;;;;;19.86;100.00;99420.02;270956;1270;22757;-85
2023/08/19 22:55:26;;;;;;;14.50;12.30;;;;;;;19.80;100.00;99419.20;271740;1269;22545;-85
2023/08/19 23:01:28;;;;;;;14.20;11.30;;;;;;;19.72;100.00;99420.95;269670;1269;22769;-85
2023/08/19 23:07:31;;;;;;;15.30;10.80;;;;;;;19.65;100.00;99418.37;273089;1270;22187;-86
2023/08/19 23:13:33;;;;;;;12.40;10.10;;;;;;;19.60;100.00;99414.66;273113;1270;22491;-85
2023/08/19 23:19:34;;;;;;;16.10;10.10;;;;;;;19.56;100.00;99417.83;273109;1270;22216;-85
2023/08/19 23:25:37;;;;;;;14.60;10.10;;;;;;;19.55;100.00;99417.77;273178;1254;22442;-85
2023/08/19 23:31:38;;;;;;;12.50;9.90;;;;;;;19.53;100.00;99415.34;273236;1270;22956;-85
2023/08/19 23:37:40;;;;;;;16.90;9.60;;;;;;;19.52;100.00;99418.06;273151;1270;22380;-85
2023/08/19 23:43:44;;;;;;;16.30;11.50;;;;;;;19.49;100.00;99417.40;273016;1269;23689;-86
2023/08/19 23:49:46;;;;;;;12.70;11.30;;;;;;;19.41;100.00;99419.14;273062;1269;22403;-86
2023/08/19 23:55:48;;;;;;;14.20;11.50;;;;;;;19.38;100.00;99415.86;273050;1270;22234;-85
